Neffs, OH (43940)

4:54 PM EDT on July 22, 2014 (GMT -0400)
Shadyside, Ohio (KOHSHADY2) Elev 669 ft | 39.98 °N, 80.74 °W | Change Station

Current weather conditions updated 3 seconds ago

Partly Cloudy
Partly Cloudy
90.8 °F
Feels Like 99 °F
N
2.0
Wind Variable Wind from SSW
Gusts 3.0 mph

Tomorrow is forecast to be Much Cooler than today. Showers and thunderstorms late.

Today
High -- | Low -- °F
--% Chance of Precip.
Yesterday
High -- | Low -- °F
Precip. -- in
6:12 AM 8:46 PM
Waning Crescent, 15% visible
Pressure 30.09 in
Visibility 10.0 miles
Clouds Few 100 ft
Few 4900 ft
Heat Index 99 °F
Dew Point 73 °F
Humidity 56%
Rainfall 0.00 in
Snow Depth Not available.
UV 7 out of 12
Pollen 5.70 out of 12
Air Quality Not available.
Flu Activity Sporadic
SPECI KHLG 222007Z 18005KT 10SM FEW001 FEW049 31/19 A3009 RMK AO2 T03060194 $

More Conditions Fewer Conditions

Pressure 30.09 in
Visibility 10.0 miles
Clouds Few 100 ft
Few 4900 ft
Heat Index 99 °F
Dew Point 73 °F
Humidity 56%
Rainfall 0.00 in
Snow Depth Not available.
UV 7 out of 12
Pollen 5.70 out of 12
Air Quality Not available.
Flu Activity Sporadic
SPECI KHLG 222007Z 18005KT 10SM FEW001 FEW049 31/19 A3009 RMK AO2 T03060194 $

More Conditions Fewer Conditions

10-Day Weather Forecast

Almanac

Astronomy

Jul. 22, 2014 Rise Set
Actual Time 6:12 AM EDT 8:46 PM EDT
Civil Twilight 5:41 AM EDT 9:17 PM EDT
Nautical Twilight 5:02 AM EDT 9:56 PM EDT
Astronomical Twilight 4:18 AM EDT 10:39 PM EDT
Moon 2:44 AM EDT 5:22 PM EDT
Length of Visible Light 15h 36m
Length of Day
14h 33m
Tomorrow will be 1m 40s shorter.
Waning Crescent, 15% of the Moon is Illuminated
Today
Waning Crescent
Jul 26
New
Aug 3
First Quarter
Aug 10
Full
Aug 17
Last Quarter

Today's Extremes

State Highs State Lows

Community

WunderPhotos

Upload Photos

1,736,350 photos uploaded!

Nearby

Snow Depth

Station Depth Elevation
No new snow has been reported.

Earthquake Activity

City Distance Mag. Time & Date
No recent earthquake activity has been reported nearby.
Minimum magnitude displayed is 2.5.

Coastal Water Temperatures

Place Temperature
No Stations Reporting

Nearby Weather Stations

Station Location Temp. Heat Index Dew Point Humidity Wind Precip. Elev Updated Type
Shadyside, Ohio, Shadyside, OH 90.8 °F 99 °F 73 °F 56% SSW  at  2.0 mph 0.00 in / hr 669 ft 4:54 PM EDT Rapid Fire
Crawford Heights, Martins Ferry, OH 90.0 °F 98 °F 72 °F 56% SSW  at  2.7 mph - / hr 1109 ft 4:44 PM EDT Normal
Whitmar Hills, Wheeling, WV 87.4 °F 96 °F 74 °F 64% South  at  2.0 mph 0.00 in / hr 1060 ft 4:50 PM EDT Normal
Clinton Hills, Triadelphia, WV 87.8 °F 94 °F 71 °F 58% West  at  1.7 mph - / hr 1122 ft 4:42 PM EDT Normal
West Alexander, West Alexander, PA 87.3 °F 93 °F 71 °F 58% NE  at  3.7 mph - / hr 1191 ft 4:47 PM EDT Normal
Jerusalem, Jerusalem, OH 86.5 °F 92 °F 70 °F 59% West  at  1.1 mph 0.00 in / hr 1253 ft 4:54 PM EDT Rapid Fire

Show More Stations Show Fewer Stations